sensor_id;sensor_type;location;lat;lon;timestamp;pressure;altitude;pressure_sealevel;temperature;humidity
11329;BME280;5719;42.714;23.732;2023-07-20T00:00:06;94194.88;;;21.37;97.68
11329;BME280;5719;42.714;23.732;2023-07-20T00:02:34;94211.03;;;21.20;100.00
11329;BME280;5719;42.714;23.732;2023-07-20T00:05:01;94212.84;;;21.19;100.00
11329;BME280;5719;42.714;23.732;2023-07-20T00:07:28;94210.13;;;21.13;100.00
11329;BME280;5719;42.714;23.732;2023-07-20T00:09:56;94203.78;;;21.22;99.67
11329;BME280;5719;42.714;23.732;2023-07-20T00:12:23;94192.53;;;21.28;99.67
11329;BME280;5719;42.714;23.732;2023-07-20T00:14:51;94200.16;;;21.37;98.74
11329;BME280;5719;42.714;23.732;2023-07-20T00:17:19;94215.09;;;21.51;98.49
11329;BME280;5719;42.714;23.732;2023-07-20T00:19:46;94208.56;;;21.62;98.13
11329;BME280;5719;42.714;23.732;2023-07-20T00:22:13;94205.63;;;21.72;97.14
11329;BME280;5719;42.714;23.732;2023-07-20T00:24:40;94191.75;;;21.78;96.52
11329;BME280;5719;42.714;23.732;2023-07-20T00:27:08;94192.56;;;21.78;96.44
11329;BME280;5719;42.714;23.732;2023-07-20T00:29:35;94186.28;;;21.79;95.98
11329;BME280;5719;42.714;23.732;2023-07-20T00:32:02;94189.38;;;21.83;95.79
11329;BME280;5719;42.714;23.732;2023-07-20T00:34:31;94193.19;;;21.80;95.80
11329;BME280;5719;42.714;23.732;2023-07-20T00:36:58;94186.50;;;21.78;96.55
11329;BME280;5719;42.714;23.732;2023-07-20T00:39:25;94175.53;;;21.74;95.95
11329;BME280;5719;42.714;23.732;2023-07-20T00:41:52;94174.44;;;21.69;96.37
11329;BME280;5719;42.714;23.732;2023-07-20T00:44:20;94180.72;;;21.53;97.16
11329;BME280;5719;42.714;23.732;2023-07-20T00:46:47;94179.13;;;21.37;98.50
11329;BME280;5719;42.714;23.732;2023-07-20T00:49:14;94165.31;;;21.35;98.13
11329;BME280;5719;42.714;23.732;2023-07-20T00:51:42;94166.94;;;21.36;98.24
11329;BME280;5719;42.714;23.732;2023-07-20T00:54:09;94165.75;;;21.39;98.20
11329;BME280;5719;42.714;23.732;2023-07-20T00:56:36;94156.06;;;21.39;97.84
11329;BME280;5719;42.714;23.732;2023-07-20T00:59:03;94154.06;;;21.41;97.54
11329;BME280;5719;42.714;23.732;2023-07-20T01:01:31;94150.72;;;21.47;97.69
11329;BME280;5719;42.714;23.732;2023-07-20T01:03:59;94139.63;;;21.52;96.87
11329;BME280;5719;42.714;23.732;2023-07-20T01:06:31;94136.81;;;21.53;96.09
11329;BME280;5719;42.714;23.732;2023-07-20T01:09:08;94139.22;;;21.34;98.37
11329;BME280;5719;42.714;23.732;2023-07-20T01:11:43;94140.81;;;21.35;98.00
11329;BME280;5719;42.714;23.732;2023-07-20T01:14:15;94135.31;;;21.30;98.80
11329;BME280;5719;42.714;23.732;2023-07-20T01:16:44;94140.72;;;20.99;100.00
11329;BME280;5719;42.714;23.732;2023-07-20T01:19:13;94145.53;;;20.81;100.00
11329;BME280;5719;42.714;23.732;2023-07-20T01:21:44;94143.69;;;20.67;100.00
11329;BME280;5719;42.714;23.732;2023-07-20T01:24:36;94139.00;;;20.77;100.00
11329;BME280;5719;42.714;23.732;2023-07-20T01:27:23;94133.03;;;20.83;100.00
11329;BME280;5719;42.714;23.732;2023-07-20T01:30:11;94138.00;;;20.78;100.00
11329;BME280;5719;42.714;23.732;2023-07-20T01:32:42;94134.19;;;20.80;100.00
11329;BME280;5719;42.714;23.732;2023-07-20T01:35:11;94129.97;;;20.79;100.00
11329;BME280;5719;42.714;23.732;2023-07-20T01:37:42;94122.25;;;20.78;100.00
11329;BME280;5719;42.714;23.732;2023-07-20T01:40:11;94114.34;;;20.78;100.00
11329;BME280;5719;42.714;23.732;2023-07-20T01:42:44;94121.25;;;20.79;100.00
11329;BME280;5719;42.714;23.732;2023-07-20T01:45:11;94133.13;;;20.75;100.00
11329;BME280;5719;42.714;23.732;2023-07-20T01:47:38;94139.19;;;20.75;100.00
11329;BME280;5719;42.714;23.732;2023-07-20T01:50:07;94126.50;;;20.64;100.00
11329;BME280;5719;42.714;23.732;2023-07-20T01:52:34;94118.22;;;20.52;100.00
11329;BME280;5719;42.714;23.732;2023-07-20T01:55:01;94117.84;;;20.41;100.00
11329;BME280;5719;42.714;23.732;2023-07-20T01:57:29;94125.56;;;20.42;100.00
11329;BME280;5719;42.714;23.732;2023-07-20T01:59:56;94125.47;;;20.36;100.00
11329;BME280;5719;42.714;23.732;2023-07-20T02:02:26;94118.72;;;20.33;100.00
11329;BME280;5719;42.714;23.732;2023-07-20T02:04:53;94121.56;;;20.32;100.00
11329;BME280;5719;42.714;23.732;2023-07-20T02:07:22;94134.94;;;20.37;100.00
11329;BME280;5719;42.714;23.732;2023-07-20T02:09:49;94128.91;;;20.36;100.00
11329;BME280;5719;42.714;23.732;2023-07-20T02:12:15;94129.91;;;20.27;100.00
11329;BME280;5719;42.714;23.732;2023-07-20T02:14:42;94127.66;;;20.24;100.00
11329;BME280;5719;42.714;23.732;2023-07-20T02:17:09;94118.09;;;20.31;100.00
11329;BME280;5719;42.714;23.732;2023-07-20T02:19:37;94115.78;;;20.36;100.00
11329;BME280;5719;42.714;23.732;2023-07-20T02:22:04;94113.78;;;20.38;100.00
11329;BME280;5719;42.714;23.732;2023-07-20T02:24:33;94125.25;;;20.37;100.00
11329;BME280;5719;42.714;23.732;2023-07-20T02:27:00;94125.31;;;20.29;100.00
11329;BME280;5719;42.714;23.732;2023-07-20T02:29:27;94126.84;;;20.24;100.00
11329;BME280;5719;42.714;23.732;2023-07-20T02:31:54;94131.78;;;20.19;100.00
11329;BME280;5719;42.714;23.732;2023-07-20T02:34:21;94131.91;;;20.25;100.00
11329;BME280;5719;42.714;23.732;2023-07-20T02:36:48;94121.94;;;20.21;100.00
11329;BME280;5719;42.714;23.732;2023-07-20T02:39:15;94119.31;;;20.21;100.00
11329;BME280;5719;42.714;23.732;2023-07-20T02:41:43;94120.31;;;20.20;100.00
11329;BME280;5719;42.714;23.732;2023-07-20T02:44:10;94117.06;;;20.18;100.00
11329;BME280;5719;42.714;23.732;2023-07-20T02:46:36;94106.34;;;20.19;100.00
11329;BME280;5719;42.714;23.732;2023-07-20T02:49:03;94103.38;;;20.22;100.00
11329;BME280;5719;42.714;23.732;2023-07-20T02:51:30;94098.13;;;20.22;100.00
11329;BME280;5719;42.714;23.732;2023-07-20T02:53:57;94092.25;;;20.20;100.00
11329;BME280;5719;42.714;23.732;2023-07-20T02:56:24;94092.59;;;20.17;100.00
11329;BME280;5719;42.714;23.732;2023-07-20T02:58:52;94093.22;;;20.19;100.00
11329;BME280;5719;42.714;23.732;2023-07-20T03:01:19;94083.03;;;20.24;100.00
11329;BME280;5719;42.714;23.732;2023-07-20T03:03:46;94089.38;;;20.30;100.00
11329;BME280;5719;42.714;23.732;2023-07-20T03:06:13;94097.47;;;20.28;100.00
11329;BME280;5719;42.714;23.732;2023-07-20T03:08:40;94096.16;;;20.24;100.00
11329;BME280;5719;42.714;23.732;2023-07-20T03:11:13;94107.00;;;20.21;100.00
11329;BME280;5719;42.714;23.732;2023-07-20T03:13:40;94098.16;;;19.99;100.00
11329;BME280;5719;42.714;23.732;2023-07-20T03:16:09;94110.28;;;20.00;100.00
11329;BME280;5719;42.714;23.732;2023-07-20T03:18:36;94110.28;;;20.00;100.00
11329;BME280;5719;42.714;23.732;2023-07-20T03:21:04;94107.84;;;19.99;100.00
11329;BME280;5719;42.714;23.732;2023-07-20T03:23:31;94108.22;;;19.96;100.00
11329;BME280;5719;42.714;23.732;2023-07-20T03:25:58;94115.41;;;19.94;100.00
11329;BME280;5719;42.714;23.732;2023-07-20T03:28:25;94107.91;;;19.91;100.00
11329;BME280;5719;42.714;23.732;2023-07-20T03:30:55;94109.53;;;19.92;100.00
11329;BME280;5719;42.714;23.732;2023-07-20T03:33:27;94112.63;;;19.95;100.00
11329;BME280;5719;42.714;23.732;2023-07-20T03:35:55;94107.84;;;19.99;100.00
11329;BME280;5719;42.714;23.732;2023-07-20T03:38:22;94119.44;;;20.04;100.00
11329;BME280;5719;42.714;23.732;2023-07-20T03:40:50;94116.28;;;20.09;100.00
11329;BME280;5719;42.714;23.732;2023-07-20T03:43:17;94126.78;;;20.09;100.00
11329;BME280;5719;42.714;23.732;2023-07-20T03:45:44;94107.19;;;19.97;100.00
11329;BME280;5719;42.714;23.732;2023-07-20T03:48:13;94113.09;;;19.99;100.00
11329;BME280;5719;42.714;23.732;2023-07-20T03:50:41;94111.97;;;19.93;100.00
11329;BME280;5719;42.714;23.732;2023-07-20T03:53:08;94116.06;;;19.96;100.00
11329;BME280;5719;42.714;23.732;2023-07-20T03:55:35;94120.44;;;20.03;100.00
11329;BME280;5719;42.714;23.732;2023-07-20T03:58:02;94119.06;;;20.07;100.00
11329;BME280;5719;42.714;23.732;2023-07-20T04:00:29;94100.72;;;20.07;100.00
11329;BME280;5719;42.714;23.732;2023-07-20T04:02:56;94113.66;;;20.09;100.00
11329;BME280;5719;42.714;23.732;2023-07-20T04:05:24;94119.63;;;20.03;100.00
11329;BME280;5719;42.714;23.732;2023-07-20T04:07:53;94126.31;;;20.05;100.00
11329;BME280;5719;42.714;23.732;2023-07-20T04:10:19;94136.66;;;20.07;100.00
11329;BME280;5719;42.714;23.732;2023-07-20T04:12:46;94136.19;;;20.03;100.00
11329;BME280;5719;42.714;23.732;2023-07-20T04:15:13;94135.47;;;20.10;100.00
11329;BME280;5719;42.714;23.732;2023-07-20T04:17:40;94139.97;;;20.01;100.00
11329;BME280;5719;42.714;23.732;2023-07-20T04:20:08;94135.38;;;20.03;100.00
11329;BME280;5719;42.714;23.732;2023-07-20T04:22:35;94124.97;;;20.10;100.00
11329;BME280;5719;42.714;23.732;2023-07-20T04:25:04;94124.72;;;20.19;100.00
11329;BME280;5719;42.714;23.732;2023-07-20T04:27:31;94139.91;;;20.09;100.00
11329;BME280;5719;42.714;23.732;2023-07-20T04:29:58;94125.81;;;20.10;100.00
11329;BME280;5719;42.714;23.732;2023-07-20T04:32:25;94125.97;;;20.08;100.00
11329;BME280;5719;42.714;23.732;2023-07-20T04:34:52;94120.19;;;20.13;100.00
11329;BME280;5719;42.714;23.732;2023-07-20T04:37:19;94126.00;;;20.23;100.00
11329;BME280;5719;42.714;23.732;2023-07-20T04:39:46;94122.28;;;20.40;100.00
11329;BME280;5719;42.714;23.732;2023-07-20T04:42:14;94117.03;;;20.55;100.00
11329;BME280;5719;42.714;23.732;2023-07-20T04:44:42;94113.44;;;20.71;100.00
11329;BME280;5719;42.714;23.732;2023-07-20T04:47:09;94116.53;;;20.89;100.00
11329;BME280;5719;42.714;23.732;2023-07-20T04:49:36;94120.16;;;21.02;100.00
11329;BME280;5719;42.714;23.732;2023-07-20T04:52:03;94111.47;;;21.17;100.00
11329;BME280;5719;42.714;23.732;2023-07-20T04:54:30;94102.66;;;21.24;100.00
11329;BME280;5719;42.714;23.732;2023-07-20T04:56:57;94098.75;;;21.35;100.00
11329;BME280;5719;42.714;23.732;2023-07-20T04:59:25;94109.81;;;21.45;100.00
11329;BME280;5719;42.714;23.732;2023-07-20T05:01:52;94107.69;;;21.55;100.00
11329;BME280;5719;42.714;23.732;2023-07-20T05:04:19;94103.38;;;21.69;99.98
11329;BME280;5719;42.714;23.732;2023-07-20T05:06:46;94114.50;;;21.85;97.71
11329;BME280;5719;42.714;23.732;2023-07-20T05:09:13;94099.25;;;21.95;96.69
11329;BME280;5719;42.714;23.732;2023-07-20T05:11:40;94105.44;;;22.09;96.25
11329;BME280;5719;42.714;23.732;2023-07-20T05:14:06;94113.91;;;22.26;96.26
11329;BME280;5719;42.714;23.732;2023-07-20T05:16:35;94113.75;;;22.34;94.75
11329;BME280;5719;42.714;23.732;2023-07-20T05:19:02;94107.53;;;22.41;93.16
11329;BME280;5719;42.714;23.732;2023-07-20T05:21:29;94099.91;;;22.53;93.64
11329;BME280;5719;42.714;23.732;2023-07-20T05:23:56;94112.63;;;22.71;90.50
11329;BME280;5719;42.714;23.732;2023-07-20T05:26:23;94102.00;;;22.85;89.15
11329;BME280;5719;42.714;23.732;2023-07-20T05:28:50;94108.97;;;23.00;87.84
11329;BME280;5719;42.714;23.732;2023-07-20T05:31:16;94109.88;;;23.13;85.91
11329;BME280;5719;42.714;23.732;2023-07-20T05:33:46;94101.81;;;23.28;83.58
11329;BME280;5719;42.714;23.732;2023-07-20T05:36:13;94100.69;;;23.43;82.82
11329;BME280;5719;42.714;23.732;2023-07-20T05:38:40;94099.72;;;23.58;83.80
11329;BME280;5719;42.714;23.732;2023-07-20T05:41:07;94099.97;;;23.76;81.99
11329;BME280;5719;42.714;23.732;2023-07-20T05:43:36;94105.91;;;23.91;80.14
11329;BME280;5719;42.714;23.732;2023-07-20T05:46:02;94096.97;;;24.05;77.94
11329;BME280;5719;42.714;23.732;2023-07-20T05:48:30;94098.66;;;24.19;78.06
11329;BME280;5719;42.714;23.732;2023-07-20T05:50:59;94108.03;;;24.35;79.02
11329;BME280;5719;42.714;23.732;2023-07-20T05:53:26;94101.53;;;24.51;77.40
11329;BME280;5719;42.714;23.732;2023-07-20T05:55:53;94104.13;;;24.70;75.92
11329;BME280;5719;42.714;23.732;2023-07-20T05:58:20;94109.47;;;24.83;75.04
11329;BME280;5719;42.714;23.732;2023-07-20T06:00:48;94102.31;;;24.91;75.75
11329;BME280;5719;42.714;23.732;2023-07-20T06:03:16;94103.31;;;24.96;76.09
11329;BME280;5719;42.714;23.732;2023-07-20T06:05:43;94111.25;;;24.83;73.94
11329;BME280;5719;42.714;23.732;2023-07-20T06:08:12;94114.94;;;24.95;75.22
11329;BME280;5719;42.714;23.732;2023-07-20T06:10:39;94114.28;;;25.00;74.29
11329;BME280;5719;42.714;23.732;2023-07-20T06:13:06;94120.00;;;24.97;72.45
11329;BME280;5719;42.714;23.732;2023-07-20T06:15:33;94119.00;;;24.91;71.67
11329;BME280;5719;42.714;23.732;2023-07-20T06:18:01;94116.38;;;24.91;71.56
11329;BME280;5719;42.714;23.732;2023-07-20T06:20:29;94116.38;;;24.91;73.16
11329;BME280;5719;42.714;23.732;2023-07-20T06:22:56;94104.69;;;25.18;72.82
11329;BME280;5719;42.714;23.732;2023-07-20T06:25:24;94101.53;;;25.48;71.77
11329;BME280;5719;42.714;23.732;2023-07-20T06:27:51;94098.19;;;25.78;71.96
11329;BME280;5719;42.714;23.732;2023-07-20T06:30:19;94101.25;;;26.07;70.30
11329;BME280;5719;42.714;23.732;2023-07-20T06:32:46;94097.81;;;26.38;69.33
11329;BME280;5719;42.714;23.732;2023-07-20T06:35:13;94096.91;;;26.50;67.03
11329;BME280;5719;42.714;23.732;2023-07-20T06:37:40;94095.03;;;26.75;67.80
11329;BME280;5719;42.714;23.732;2023-07-20T06:40:08;94093.28;;;26.94;66.89
11329;BME280;5719;42.714;23.732;2023-07-20T06:42:36;94089.44;;;27.08;65.52
11329;BME280;5719;42.714;23.732;2023-07-20T06:45:04;94092.84;;;27.15;62.91
11329;BME280;5719;42.714;23.732;2023-07-20T06:47:31;94099.91;;;27.21;62.77
11329;BME280;5719;42.714;23.732;2023-07-20T06:49:58;94095.66;;;27.20;61.77
11329;BME280;5719;42.714;23.732;2023-07-20T06:52:25;94093.38;;;27.42;62.44
11329;BME280;5719;42.714;23.732;2023-07-20T06:54:52;94083.13;;;27.64;62.36
11329;BME280;5719;42.714;23.732;2023-07-20T06:57:19;94091.00;;;27.70;59.66
11329;BME280;5719;42.714;23.732;2023-07-20T06:59:47;94083.19;;;27.87;59.36
11329;BME280;5719;42.714;23.732;2023-07-20T07:02:14;94088.53;;;27.57;57.85
11329;BME280;5719;42.714;23.732;2023-07-20T07:04:41;94096.09;;;27.36;57.86
11329;BME280;5719;42.714;23.732;2023-07-20T07:07:08;94091.22;;;27.33;57.02
11329;BME280;5719;42.714;23.732;2023-07-20T07:09:35;94099.88;;;27.46;60.27
11329;BME280;5719;42.714;23.732;2023-07-20T07:12:03;94104.91;;;27.84;58.26
11329;BME280;5719;42.714;23.732;2023-07-20T07:14:30;94100.59;;;28.19;57.83
11329;BME280;5719;42.714;23.732;2023-07-20T07:16:58;94106.25;;;28.35;56.33
11329;BME280;5719;42.714;23.732;2023-07-20T07:19:27;94112.53;;;28.40;54.40
11329;BME280;5719;42.714;23.732;2023-07-20T07:21:54;94118.03;;;28.68;54.58
11329;BME280;5719;42.714;23.732;2023-07-20T07:24:21;94122.78;;;28.78;55.00
11329;BME280;5719;42.714;23.732;2023-07-20T07:26:48;94124.63;;;28.66;54.85
11329;BME280;5719;42.714;23.732;2023-07-20T07:29:15;94126.41;;;28.42;53.98
11329;BME280;5719;42.714;23.732;2023-07-20T07:31:41;94133.88;;;27.74;58.29
11329;BME280;5719;42.714;23.732;2023-07-20T07:34:10;94140.94;;;27.80;63.34
11329;BME280;5719;42.714;23.732;2023-07-20T07:36:37;94149.72;;;27.62;61.06
11329;BME280;5719;42.714;23.732;2023-07-20T07:39:04;94149.09;;;27.49;59.47
11329;BME280;5719;42.714;23.732;2023-07-20T07:41:30;94151.69;;;27.30;60.88
11329;BME280;5719;42.714;23.732;2023-07-20T07:43:57;94158.91;;;27.23;61.97
11329;BME280;5719;42.714;23.732;2023-07-20T07:46:24;94156.22;;;27.66;63.53
11329;BME280;5719;42.714;23.732;2023-07-20T07:48:51;94151.88;;;27.72;60.64
11329;BME280;5719;42.714;23.732;2023-07-20T07:51:19;94139.88;;;27.99;60.62
11329;BME280;5719;42.714;23.732;2023-07-20T07:53:46;94143.88;;;28.08;59.39
11329;BME280;5719;42.714;23.732;2023-07-20T07:56:14;94137.09;;;28.24;60.77
11329;BME280;5719;42.714;23.732;2023-07-20T07:58:42;94143.06;;;28.38;59.86
11329;BME280;5719;42.714;23.732;2023-07-20T08:01:09;94137.31;;;28.64;57.92
11329;BME280;5719;42.714;23.732;2023-07-20T08:03:36;94145.19;;;28.59;55.08
11329;BME280;5719;42.714;23.732;2023-07-20T08:06:03;94134.94;;;28.33;57.58
11329;BME280;5719;42.714;23.732;2023-07-20T08:08:32;94135.16;;;28.31;56.76
11329;BME280;5719;42.714;23.732;2023-07-20T08:11:00;94116.84;;;28.64;56.87
11329;BME280;5719;42.714;23.732;2023-07-20T08:13:27;94105.91;;;28.72;56.68
11329;BME280;5719;42.714;23.732;2023-07-20T08:15:54;94111.47;;;28.94;55.98
11329;BME280;5719;42.714;23.732;2023-07-20T08:18:21;94107.91;;;29.35;56.24
11329;BME280;5719;42.714;23.732;2023-07-20T08:20:48;94102.09;;;29.78;53.71
11329;BME280;5719;42.714;23.732;2023-07-20T08:23:15;94115.09;;;29.75;52.89
11329;BME280;5719;42.714;23.732;2023-07-20T08:25:44;94106.22;;;29.69;53.08
11329;BME280;5719;42.714;23.732;2023-07-20T08:28:11;94111.09;;;29.60;52.13
11329;BME280;5719;42.714;23.732;2023-07-20T08:30:42;94121.63;;;29.44;52.70
11329;BME280;5719;42.714;23.732;2023-07-20T08:33:10;94124.00;;;29.80;53.98
11329;BME280;5719;42.714;23.732;2023-07-20T08:35:37;94114.84;;;29.88;53.58
11329;BME280;5719;42.714;23.732;2023-07-20T08:38:04;94107.78;;;29.93;52.71
11329;BME280;5719;42.714;23.732;2023-07-20T08:40:31;94109.09;;;30.07;51.80
11329;BME280;5719;42.714;23.732;2023-07-20T08:43:00;94096.47;;;30.03;48.32
11329;BME280;5719;42.714;23.732;2023-07-20T08:45:28;94104.53;;;29.40;50.48
11329;BME280;5719;42.714;23.732;2023-07-20T08:47:56;94104.41;;;29.46;50.26
11329;BME280;5719;42.714;23.732;2023-07-20T08:50:25;94096.56;;;29.80;48.98
11329;BME280;5719;42.714;23.732;2023-07-20T08:52:54;94093.81;;;29.63;48.02
11329;BME280;5719;42.714;23.732;2023-07-20T08:55:23;94094.16;;;29.66;48.93
11329;BME280;5719;42.714;23.732;2023-07-20T08:57:52;94102.59;;;29.75;48.11
11329;BME280;5719;42.714;23.732;2023-07-20T09:00:23;94107.47;;;30.06;48.48
11329;BME280;5719;42.714;23.732;2023-07-20T09:02:52;94100.47;;;29.89;48.97
11329;BME280;5719;42.714;23.732;2023-07-20T09:05:19;94090.41;;;29.91;50.42
11329;BME280;5719;42.714;23.732;2023-07-20T09:07:47;94089.88;;;30.05;50.68
11329;BME280;5719;42.714;23.732;2023-07-20T09:10:14;94101.06;;;29.91;51.42
11329;BME280;5719;42.714;23.732;2023-07-20T09:12:42;94104.16;;;29.48;51.98
11329;BME280;5719;42.714;23.732;2023-07-20T09:15:10;94103.63;;;29.74;51.96
11329;BME280;5719;42.714;23.732;2023-07-20T09:17:39;94100.41;;;29.72;52.69
11329;BME280;5719;42.714;23.732;2023-07-20T09:20:07;94096.44;;;30.14;51.85
11329;BME280;5719;42.714;23.732;2023-07-20T09:22:36;94089.84;;;30.34;51.63
11329;BME280;5719;42.714;23.732;2023-07-20T09:25:06;94081.31;;;30.48;52.12
11329;BME280;5719;42.714;23.732;2023-07-20T09:27:38;94082.59;;;30.79;50.97
11329;BME280;5719;42.714;23.732;2023-07-20T09:30:06;94089.47;;;30.75;51.55
11329;BME280;5719;42.714;23.732;2023-07-20T09:32:40;94082.47;;;30.52;52.52
11329;BME280;5719;42.714;23.732;2023-07-20T09:35:13;94084.00;;;30.48;52.60
11329;BME280;5719;42.714;23.732;2023-07-20T09:37:46;94083.91;;;30.60;53.57
11329;BME280;5719;42.714;23.732;2023-07-20T09:40:15;94095.53;;;30.87;49.68
11329;BME280;5719;42.714;23.732;2023-07-20T09:42:43;94087.75;;;30.86;51.16
11329;BME280;5719;42.714;23.732;2023-07-20T09:45:10;94077.69;;;30.71;50.76
11329;BME280;5719;42.714;23.732;2023-07-20T09:47:39;94082.59;;;30.46;50.03
11329;BME280;5719;42.714;23.732;2023-07-20T09:50:07;94077.09;;;30.69;51.04
11329;BME280;5719;42.714;23.732;2023-07-20T09:52:38;94080.19;;;30.78;49.70
11329;BME280;5719;42.714;23.732;2023-07-20T09:55:07;94075.53;;;30.90;47.98
11329;BME280;5719;42.714;23.732;2023-07-20T09:57:34;94073.28;;;31.15;49.73
11329;BME280;5719;42.714;23.732;2023-07-20T10:00:03;94084.28;;;31.57;48.32
11329;BME280;5719;42.714;23.732;2023-07-20T10:02:33;94086.38;;;31.98;46.94
11329;BME280;5719;42.714;23.732;2023-07-20T10:05:05;94079.69;;;31.74;45.34
11329;BME280;5719;42.714;23.732;2023-07-20T10:07:36;94084.75;;;31.97;46.23
11329;BME280;5719;42.714;23.732;2023-07-20T10:10:09;94077.06;;;31.79;47.37
11329;BME280;5719;42.714;23.732;2023-07-20T10:12:39;94071.91;;;31.94;44.54
11329;BME280;5719;42.714;23.732;2023-07-20T10:15:11;94062.28;;;31.72;46.04
11329;BME280;5719;42.714;23.732;2023-07-20T10:17:48;94052.78;;;31.21;45.97
11329;BME280;5719;42.714;23.732;2023-07-20T10:20:19;94047.16;;;31.00;47.70
11329;BME280;5719;42.714;23.732;2023-07-20T10:22:48;94052.28;;;31.24;47.63
11329;BME280;5719;42.714;23.732;2023-07-20T10:25:18;94033.22;;;31.37;45.93
11329;BME280;5719;42.714;23.732;2023-07-20T10:27:46;94050.38;;;31.41;42.78
11329;BME280;5719;42.714;23.732;2023-07-20T10:30:14;94045.41;;;30.89;45.18
11329;BME280;5719;42.714;23.732;2023-07-20T10:32:42;94051.88;;;30.60;44.62
11329;BME280;5719;42.714;23.732;2023-07-20T10:35:13;94055.44;;;30.49;45.70
11329;BME280;5719;42.714;23.732;2023-07-20T10:37:50;94051.97;;;30.48;43.57
11329;BME280;5719;42.714;23.732;2023-07-20T10:40:28;94055.00;;;30.40;44.51
11329;BME280;5719;42.714;23.732;2023-07-20T10:43:00;94069.03;;;30.47;44.52
11329;BME280;5719;42.714;23.732;2023-07-20T10:45:39;94071.94;;;30.62;44.88
11329;BME280;5719;42.714;23.732;2023-07-20T10:48:13;94075.16;;;30.48;44.17
11329;BME280;5719;42.714;23.732;2023-07-20T10:50:42;94069.59;;;30.21;44.56
11329;BME280;5719;42.714;23.732;2023-07-20T10:53:18;94059.75;;;30.22;45.48
11329;BME280;5719;42.714;23.732;2023-07-20T10:55:45;94069.06;;;30.19;45.66
11329;BME280;5719;42.714;23.732;2023-07-20T10:58:16;94054.41;;;30.22;45.18
11329;BME280;5719;42.714;23.732;2023-07-20T11:00:57;94023.84;;;29.96;45.12
11329;BME280;5719;42.714;23.732;2023-07-20T11:03:29;94018.22;;;30.09;44.65
11329;BME280;5719;42.714;23.732;2023-07-20T11:05:57;94041.50;;;30.30;44.97
11329;BME280;5719;42.714;23.732;2023-07-20T11:08:42;94048.69;;;30.30;45.65
11329;BME280;5719;42.714;23.732;2023-07-20T11:11:22;94043.25;;;30.08;43.58
11329;BME280;5719;42.714;23.732;2023-07-20T11:13:57;94024.59;;;29.80;45.00
11329;BME280;5719;42.714;23.732;2023-07-20T11:16:40;94009.47;;;30.13;44.16
11329;BME280;5719;42.714;23.732;2023-07-20T11:19:14;94004.81;;;30.54;45.79
11329;BME280;5719;42.714;23.732;2023-07-20T11:21:43;94009.00;;;31.00;44.33
11329;BME280;5719;42.714;23.732;2023-07-20T11:24:12;94009.34;;;31.08;44.73
11329;BME280;5719;42.714;23.732;2023-07-20T11:26:43;94020.72;;;30.99;43.75
11329;BME280;5719;42.714;23.732;2023-07-20T11:29:11;94024.75;;;31.01;45.50
11329;BME280;5719;42.714;23.732;2023-07-20T11:31:38;94009.16;;;31.37;45.77
11329;BME280;5719;42.714;23.732;2023-07-20T11:34:06;94007.06;;;31.39;43.81
11329;BME280;5719;42.714;23.732;2023-07-20T11:36:34;94005.47;;;31.59;42.76
11329;BME280;5719;42.714;23.732;2023-07-20T11:39:01;94002.25;;;31.57;42.39
11329;BME280;5719;42.714;23.732;2023-07-20T11:41:31;94008.63;;;31.56;42.81
11329;BME280;5719;42.714;23.732;2023-07-20T11:43:59;94001.97;;;31.59;41.08
11329;BME280;5719;42.714;23.732;2023-07-20T11:46:27;94001.34;;;32.00;41.20
11329;BME280;5719;42.714;23.732;2023-07-20T11:48:58;94000.19;;;31.91;40.64
11329;BME280;5719;42.714;23.732;2023-07-20T11:51:26;93998.97;;;32.04;40.70
11329;BME280;5719;42.714;23.732;2023-07-20T11:53:56;93989.59;;;32.01;39.93
11329;BME280;5719;42.714;23.732;2023-07-20T11:56:24;93983.69;;;32.26;40.90
11329;BME280;5719;42.714;23.732;2023-07-20T11:58:56;93986.41;;;32.63;40.12
11329;BME280;5719;42.714;23.732;2023-07-20T12:01:25;93975.06;;;32.98;39.78
11329;BME280;5719;42.714;23.732;2023-07-20T12:03:55;93973.09;;;33.30;38.01
11329;BME280;5719;42.714;23.732;2023-07-20T12:06:23;93972.84;;;33.32;38.10
11329;BME280;5719;42.714;23.732;2023-07-20T12:08:54;93970.88;;;33.12;37.20
11329;BME280;5719;42.714;23.732;2023-07-20T12:11:33;93968.00;;;32.77;38.55
11329;BME280;5719;42.714;23.732;2023-07-20T12:14:02;93961.97;;;32.96;38.06
11329;BME280;5719;42.714;23.732;2023-07-20T12:16:30;93960.25;;;33.37;40.09
11329;BME280;5719;42.714;23.732;2023-07-20T12:19:02;93963.53;;;32.97;37.87
11329;BME280;5719;42.714;23.732;2023-07-20T12:21:29;93952.88;;;33.02;39.38
11329;BME280;5719;42.714;23.732;2023-07-20T12:23:58;93949.75;;;33.21;39.46
11329;BME280;5719;42.714;23.732;2023-07-20T12:26:25;93951.25;;;33.01;39.28
11329;BME280;5719;42.714;23.732;2023-07-20T12:28:52;93962.63;;;33.19;38.97
11329;BME280;5719;42.714;23.732;2023-07-20T12:31:21;93958.97;;;32.51;38.93
11329;BME280;5719;42.714;23.732;2023-07-20T12:33:49;93947.63;;;32.39;37.53
11329;BME280;5719;42.714;23.732;2023-07-20T12:36:17;93936.75;;;32.92;39.54
11329;BME280;5719;42.714;23.732;2023-07-20T12:38:44;93938.75;;;32.65;36.77
11329;BME280;5719;42.714;23.732;2023-07-20T12:41:12;93944.75;;;32.82;37.35
11329;BME280;5719;42.714;23.732;2023-07-20T12:43:39;93944.47;;;32.79;37.25
11329;BME280;5719;42.714;23.732;2023-07-20T12:46:06;93936.22;;;32.95;37.18
11329;BME280;5719;42.714;23.732;2023-07-20T12:48:35;93939.31;;;33.24;36.47
11329;BME280;5719;42.714;23.732;2023-07-20T12:51:03;93938.00;;;33.32;34.50
11329;BME280;5719;42.714;23.732;2023-07-20T12:53:31;93932.50;;;33.01;34.00
11329;BME280;5719;42.714;23.732;2023-07-20T12:55:58;93934.06;;;32.92;34.02
11329;BME280;5719;42.714;23.732;2023-07-20T12:58:25;93938.72;;;33.12;34.78
11329;BME280;5719;42.714;23.732;2023-07-20T13:00:52;93935.09;;;33.33;34.04
11329;BME280;5719;42.714;23.732;2023-07-20T13:03:19;93935.75;;;33.81;33.71